Time;durP1;ratioP1;P1;durP2;ratioP2;P2;SDS_P1;SDS_P2;PMS_P1;PMS_P2;Temp;Humidity;BMP_temperature;BMP_pressure;BME280_temperature;BME280_humidity;BME280_pressure;Samples;Min_cycle;Max_cycle;Signal;HPM_P1;HPM_P2
2021/09/12 00:00:09;;;;;;;6.33;5.07;;;17.80;99.90;;;;;;5115837;28;20453;-85
2021/09/12 00:02:36;;;;;;;6.40;5.10;;;17.60;99.90;;;;;;5107683;28;20508;-84
2021/09/12 00:05:04;;;;;;;6.63;4.60;;;17.50;99.90;;;;;;5077329;28;20490;-85
2021/09/12 00:07:30;;;;;;;8.60;5.77;;;17.50;99.90;;;;;;5089083;28;20895;-85
2021/09/12 00:09:57;;;;;;;6.10;4.50;;;17.60;99.90;;;;;;5099428;28;20539;-85
2021/09/12 00:12:24;;;;;;;6.83;5.70;;;17.60;99.90;;;;;;5101544;28;20521;-85
2021/09/12 00:14:52;;;;;;;7.30;4.97;;;17.50;99.90;;;;;;5101744;28;20477;-85
2021/09/12 00:17:19;;;;;;;7.33;5.40;;;17.50;99.90;;;;;;5097367;28;20449;-85
2021/09/12 00:19:46;;;;;;;9.03;5.20;;;17.50;99.90;;;;;;5080104;28;20549;-85
2021/09/12 00:22:13;;;;;;;9.83;5.33;;;17.40;99.90;;;;;;5086728;28;20486;-85
2021/09/12 00:24:40;;;;;;;11.23;5.30;;;17.30;99.90;;;;;;5098759;28;20520;-85
2021/09/12 00:27:06;;;;;;;8.50;4.80;;;17.40;99.90;;;;;;5086640;28;20453;-85
2021/09/12 00:29:34;;;;;;;9.10;5.50;;;17.40;99.90;;;;;;5078873;28;20629;-84
2021/09/12 00:32:02;;;;;;;9.17;5.13;;;17.40;99.90;;;;;;5086214;28;20455;-84
2021/09/12 00:34:29;;;;;;;6.23;5.50;;;17.30;99.90;;;;;;5098941;28;20445;-85
2021/09/12 00:36:55;;;;;;;6.80;4.63;;;17.30;99.90;;;;;;5087704;28;20548;-85
2021/09/12 00:39:22;;;;;;;8.70;5.57;;;17.20;99.90;;;;;;5107760;28;20973;-84
2021/09/12 00:41:49;;;;;;;5.80;4.60;;;17.20;99.90;;;;;;5096195;28;20947;-84
2021/09/12 00:44:16;;;;;;;7.10;4.17;;;17.20;99.90;;;;;;5080487;28;20465;-85
2021/09/12 00:46:45;;;;;;;8.20;5.33;;;17.20;99.90;;;;;;5101625;28;20470;-84
2021/09/12 00:49:14;;;;;;;6.03;4.70;;;17.20;99.90;;;;;;5140451;28;20559;-84
2021/09/12 00:51:41;;;;;;;6.97;5.03;;;17.10;99.90;;;;;;5134539;28;20522;-84
2021/09/12 00:54:10;;;;;;;7.10;4.87;;;17.00;99.90;;;;;;5106899;28;20461;-84
2021/09/12 00:56:38;;;;;;;7.80;5.00;;;17.00;99.90;;;;;;5115750;28;20451;-85
2021/09/12 00:59:07;;;;;;;7.90;5.00;;;17.00;99.90;;;;;;5104281;28;20452;-85
2021/09/12 01:01:34;;;;;;;6.10;4.77;;;17.00;99.90;;;;;;5105744;28;20457;-85
2021/09/12 01:04:02;;;;;;;11.30;5.07;;;17.00;99.90;;;;;;5092939;28;20972;-85
2021/09/12 01:06:30;;;;;;;8.33;4.60;;;17.00;99.90;;;;;;5111926;28;20500;-84
2021/09/12 01:08:57;;;;;;;6.90;4.57;;;17.10;99.90;;;;;;5115456;28;20556;-85
2021/09/12 01:11:24;;;;;;;8.57;4.53;;;17.10;99.90;;;;;;5111260;28;20521;-85
2021/09/12 01:13:51;;;;;;;9.83;5.70;;;17.00;99.90;;;;;;5091321;28;20536;-85
2021/09/12 01:16:19;;;;;;;9.90;4.80;;;17.00;99.90;;;;;;5102870;28;20538;-85
2021/09/12 01:18:47;;;;;;;7.50;4.80;;;17.00;99.90;;;;;;5083765;28;20456;-85
2021/09/12 01:21:17;;;;;;;6.53;5.13;;;17.00;99.90;;;;;;5095629;28;20957;-85
2021/09/12 01:23:45;;;;;;;6.37;4.07;;;17.00;99.90;;;;;;5084049;28;20522;-85
2021/09/12 01:26:13;;;;;;;6.07;4.90;;;16.90;99.90;;;;;;5081819;28;20482;-85
2021/09/12 01:28:41;;;;;;;10.63;4.63;;;17.00;99.90;;;;;;5082053;28;20576;-84
2021/09/12 01:31:17;;;;;;;7.80;4.93;;;16.90;99.90;;;;;;5108810;28;20470;-85
2021/09/12 01:33:44;;;;;;;5.33;4.13;;;16.90;99.90;;;;;;5103455;28;20455;-85
2021/09/12 01:36:11;;;;;;;6.30;4.53;;;16.90;99.90;;;;;;5103059;28;20924;-85
2021/09/12 01:38:38;;;;;;;9.40;5.03;;;16.90;99.90;;;;;;5103457;28;20894;-84
2021/09/12 01:41:05;;;;;;;6.63;4.70;;;16.80;99.90;;;;;;5104537;28;20455;-85
2021/09/12 01:43:33;;;;;;;9.57;5.20;;;16.80;99.90;;;;;;5085648;28;20453;-85
2021/09/12 01:46:00;;;;;;;5.40;4.53;;;16.70;99.90;;;;;;5081865;28;20560;-85
2021/09/12 01:48:27;;;;;;;7.73;4.97;;;16.70;99.90;;;;;;5103788;28;20480;-85
2021/09/12 01:50:53;;;;;;;7.47;4.37;;;16.60;99.90;;;;;;5102950;28;20443;-84
2021/09/12 01:53:20;;;;;;;6.17;4.63;;;16.60;99.90;;;;;;5086428;28;20452;-85
2021/09/12 01:55:47;;;;;;;9.33;5.27;;;16.60;99.90;;;;;;5084187;28;20461;-84
2021/09/12 01:58:14;;;;;;;5.87;4.83;;;16.60;99.90;;;;;;5079660;28;20449;-84
2021/09/12 02:00:42;;;;;;;7.33;4.93;;;16.50;99.90;;;;;;5118296;28;20455;-84
2021/09/12 02:03:09;;;;;;;5.53;4.60;;;16.50;99.90;;;;;;5105822;28;20958;-84
2021/09/12 02:05:35;;;;;;;6.00;4.67;;;16.40;99.90;;;;;;5099585;28;20482;-84
2021/09/12 02:08:02;;;;;;;5.50;4.37;;;16.50;99.90;;;;;;5100541;28;20998;-84
2021/09/12 02:10:29;;;;;;;8.00;5.07;;;16.40;99.90;;;;;;5115322;28;20468;-84
2021/09/12 02:12:57;;;;;;;7.60;4.83;;;16.40;99.90;;;;;;5104441;28;20926;-85
2021/09/12 02:15:24;;;;;;;6.63;5.00;;;16.40;99.90;;;;;;5116175;28;20563;-85
2021/09/12 02:17:52;;;;;;;7.93;5.87;;;16.40;99.90;;;;;;5100999;28;20538;-85
2021/09/12 02:20:19;;;;;;;6.43;5.17;;;16.30;99.90;;;;;;5100872;28;20451;-85
2021/09/12 02:22:46;;;;;;;5.83;4.50;;;16.30;99.90;;;;;;5090655;28;20459;-84
2021/09/12 02:25:13;;;;;;;5.80;4.57;;;16.30;99.90;;;;;;5082817;28;20489;-84
2021/09/12 02:27:39;;;;;;;7.63;4.63;;;16.30;99.90;;;;;;5120181;22;20581;-78
2021/09/12 02:30:08;;;;;;;8.17;5.17;;;16.30;99.90;;;;;;5137968;27;20540;-80
2021/09/12 02:32:35;;;;;;;7.13;4.80;;;16.40;99.90;;;;;;5131315;27;20458;-80
2021/09/12 02:35:04;;;;;;;6.60;5.13;;;16.40;99.90;;;;;;5120233;28;20457;-80
2021/09/12 02:37:31;;;;;;;7.53;5.00;;;16.40;99.90;;;;;;5120207;28;20499;-80
2021/09/12 02:39:57;;;;;;;7.57;5.30;;;16.40;99.90;;;;;;5122112;28;20445;-79
2021/09/12 02:42:24;;;;;;;8.50;6.60;;;16.30;99.90;;;;;;5127327;27;20500;-79
2021/09/12 02:44:51;;;;;;;7.20;5.40;;;16.20;99.90;;;;;;5143030;27;20475;-78
2021/09/12 02:47:19;;;;;;;8.03;4.73;;;16.20;99.90;;;;;;5138458;27;20469;-80
2021/09/12 02:49:46;;;;;;;6.13;4.60;;;16.10;99.90;;;;;;5140791;27;20482;-79
2021/09/12 02:52:14;;;;;;;5.67;4.73;;;16.10;99.90;;;;;;5136187;27;20442;-79
2021/09/12 02:54:41;;;;;;;7.07;4.77;;;16.10;99.90;;;;;;5118364;27;20526;-80
2021/09/12 02:57:08;;;;;;;6.00;4.73;;;16.20;99.90;;;;;;5117189;28;20470;-80
2021/09/12 02:59:35;;;;;;;10.30;5.40;;;16.10;99.90;;;;;;5118470;28;20446;-80
2021/09/12 03:02:02;;;;;;;5.73;4.63;;;16.20;99.90;;;;;;5123824;27;20534;-83
2021/09/12 03:04:28;;;;;;;6.33;4.07;;;16.10;99.90;;;;;;5137462;27;20472;-80
2021/09/12 03:06:55;;;;;;;12.00;5.37;;;16.10;99.90;;;;;;5137145;27;20896;-80
2021/09/12 03:09:23;;;;;;;7.63;4.97;;;16.10;99.90;;;;;;5137815;27;20852;-79
2021/09/12 03:11:51;;;;;;;6.00;4.23;;;16.10;99.90;;;;;;5121276;27;20542;-79
2021/09/12 03:14:18;;;;;;;7.17;4.83;;;16.10;99.90;;;;;;5138945;27;20458;-78
2021/09/12 03:16:45;;;;;;;6.87;4.60;;;16.10;99.90;;;;;;5145866;27;20434;-78
2021/09/12 03:19:12;;;;;;;6.77;4.20;;;16.10;99.90;;;;;;5146482;27;20415;-80
2021/09/12 03:21:39;;;;;;;8.20;4.77;;;16.00;99.90;;;;;;5134442;27;20450;-81
2021/09/12 03:24:06;;;;;;;7.30;4.10;;;16.00;99.90;;;;;;5140115;27;20453;-81
2021/09/12 03:26:34;;;;;;;6.20;4.30;;;16.00;99.90;;;;;;5139297;27;20444;-81
2021/09/12 03:29:01;;;;;;;6.60;4.73;;;15.90;99.90;;;;;;5139149;27;20489;-81
2021/09/12 03:31:27;;;;;;;5.60;4.33;;;15.90;99.90;;;;;;5138711;27;20450;-81
2021/09/12 03:33:54;;;;;;;6.30;3.97;;;15.90;99.90;;;;;;5123306;27;20446;-82
2021/09/12 03:36:21;;;;;;;9.07;5.00;;;15.90;99.90;;;;;;5131974;27;20462;-80
2021/09/12 03:38:48;;;;;;;5.83;4.37;;;15.90;99.90;;;;;;5137412;27;20465;-81
2021/09/12 03:41:15;;;;;;;5.53;4.13;;;15.90;99.90;;;;;;5137199;27;20444;-80
2021/09/12 03:43:43;;;;;;;9.10;4.63;;;15.80;99.90;;;;;;5124397;27;20526;-82
2021/09/12 03:46:10;;;;;;;6.37;4.90;;;15.80;99.90;;;;;;5116620;28;20544;-81
2021/09/12 03:48:37;;;;;;;10.50;4.13;;;15.70;99.90;;;;;;5115894;28;20485;-82
2021/09/12 03:51:03;;;;;;;6.57;4.87;;;15.60;99.90;;;;;;5135282;27;20449;-81
2021/09/12 03:53:30;;;;;;;9.63;4.70;;;15.70;99.90;;;;;;5123702;27;20452;-82
2021/09/12 03:55:57;;;;;;;5.23;3.80;;;15.60;99.90;;;;;;5116126;28;20540;-82
2021/09/12 03:58:24;;;;;;;10.00;4.43;;;15.50;99.90;;;;;;5116118;28;20477;-81
2021/09/12 04:00:52;;;;;;;6.27;4.73;;;15.60;99.90;;;;;;5116385;28;20874;-81
2021/09/12 04:03:19;;;;;;;6.40;4.30;;;15.60;99.90;;;;;;5117547;27;20445;-81
2021/09/12 04:05:46;;;;;;;5.47;4.30;;;15.60;99.90;;;;;;5137288;27;20454;-81
2021/09/12 04:08:12;;;;;;;5.57;4.40;;;15.60;99.90;;;;;;5127595;27;20496;-80
2021/09/12 04:10:39;;;;;;;7.10;4.67;;;15.60;99.90;;;;;;5126550;28;20473;-81
2021/09/12 04:13:06;;;;;;;7.80;3.93;;;15.60;99.90;;;;;;5124863;27;20468;-82
2021/09/12 04:15:33;;;;;;;5.63;4.20;;;15.50;99.90;;;;;;5137241;27;20444;-81
2021/09/12 04:18:01;;;;;;;6.23;4.90;;;15.40;99.90;;;;;;5133600;27;20449;-81
2021/09/12 04:20:28;;;;;;;7.70;4.33;;;15.20;99.90;;;;;;5117296;28;20504;-81
2021/09/12 04:22:55;;;;;;;5.57;4.53;;;15.30;99.90;;;;;;5124428;27;20455;-81
2021/09/12 04:25:21;;;;;;;5.60;4.50;;;15.20;99.90;;;;;;5141630;27;20449;-81
2021/09/12 04:27:48;;;;;;;6.27;4.53;;;15.20;99.90;;;;;;5142345;28;20479;-81
2021/09/12 04:30:15;;;;;;;11.27;4.23;;;15.20;99.90;;;;;;5140113;28;20550;-81
2021/09/12 04:32:42;;;;;;;6.27;4.07;;;15.20;99.90;;;;;;5134808;28;21016;-81
2021/09/12 04:35:11;;;;;;;5.80;4.27;;;15.20;99.90;;;;;;5139284;28;20453;-82
2021/09/12 04:37:38;;;;;;;7.03;4.53;;;15.10;99.90;;;;;;5137361;28;20469;-82
2021/09/12 04:40:06;;;;;;;5.80;4.40;;;15.10;99.90;;;;;;5136441;28;20447;-82
2021/09/12 04:42:34;;;;;;;5.80;4.23;;;15.20;99.90;;;;;;5121134;28;20450;-82
2021/09/12 04:45:00;;;;;;;7.97;4.20;;;15.20;99.90;;;;;;5126991;28;20469;-79
2021/09/12 04:47:27;;;;;;;6.13;4.23;;;15.10;99.90;;;;;;5129316;28;20555;-82
2021/09/12 04:49:54;;;;;;;5.47;3.97;;;15.10;99.90;;;;;;5136864;28;20493;-82
2021/09/12 04:52:22;;;;;;;5.43;4.17;;;15.10;99.90;;;;;;5131724;28;20450;-82
2021/09/12 04:54:49;;;;;;;7.33;5.07;;;15.00;99.90;;;;;;5116772;28;20426;-81
2021/09/12 04:57:16;;;;;;;6.10;4.23;;;15.00;99.90;;;;;;5116957;28;20833;-81
2021/09/12 04:59:43;;;;;;;6.20;4.20;;;15.00;99.90;;;;;;5130895;28;20423;-81
2021/09/12 05:02:10;;;;;;;6.60;5.00;;;15.00;99.90;;;;;;5134387;28;20927;-80
2021/09/12 05:04:36;;;;;;;9.47;4.27;;;15.10;99.90;;;;;;5130620;28;20510;-82
2021/09/12 05:07:04;;;;;;;6.10;3.83;;;15.00;99.90;;;;;;5136169;28;20486;-81
2021/09/12 05:09:32;;;;;;;5.80;4.17;;;15.00;99.90;;;;;;5135859;28;20451;-81
2021/09/12 05:11:58;;;;;;;5.73;4.33;;;15.00;99.90;;;;;;5134359;28;20438;-82
2021/09/12 05:14:26;;;;;;;4.83;3.70;;;15.00;99.90;;;;;;5115877;28;20896;-82
2021/09/12 05:16:53;;;;;;;6.90;4.33;;;15.10;99.90;;;;;;5127894;28;20499;-81
2021/09/12 05:19:20;;;;;;;5.93;3.97;;;15.00;99.90;;;;;;5116962;28;20423;-82
2021/09/12 05:21:47;;;;;;;5.20;3.80;;;14.90;99.90;;;;;;5121415;28;20533;-82
2021/09/12 05:24:14;;;;;;;5.43;3.47;;;14.90;99.90;;;;;;5136850;28;20455;-82
2021/09/12 05:26:42;;;;;;;5.73;4.10;;;15.00;99.90;;;;;;5139651;28;20453;-81
2021/09/12 05:29:09;;;;;;;7.17;4.17;;;14.90;99.90;;;;;;5148204;28;20575;-80
2021/09/12 05:31:35;;;;;;;14.63;4.03;;;14.90;99.90;;;;;;5138584;28;20515;-80
2021/09/12 05:34:02;;;;;;;6.20;3.30;;;14.90;99.90;;;;;;5127280;28;20537;-81
2021/09/12 05:36:29;;;;;;;5.53;3.80;;;14.90;99.90;;;;;;5124126;28;20427;-81
2021/09/12 05:38:56;;;;;;;5.40;4.00;;;14.90;99.90;;;;;;5122910;28;20531;-81
2021/09/12 05:41:23;;;;;;;10.80;4.53;;;14.80;99.90;;;;;;5126065;27;20427;-81
2021/09/12 05:43:51;;;;;;;5.60;4.40;;;14.80;99.90;;;;;;5141599;27;20730;-82
2021/09/12 05:46:18;;;;;;;6.40;3.97;;;14.90;99.90;;;;;;5123350;27;20492;-82
2021/09/12 05:48:44;;;;;;;7.13;3.90;;;15.00;99.90;;;;;;5119841;28;20535;-81
2021/09/12 05:51:11;;;;;;;5.00;3.80;;;14.90;99.90;;;;;;5127859;27;20475;-79
2021/09/12 05:53:38;;;;;;;8.13;4.40;;;15.00;99.90;;;;;;5134003;28;20465;-80
2021/09/12 05:56:05;;;;;;;5.97;3.80;;;15.00;99.90;;;;;;5125487;27;20448;-81
2021/09/12 05:58:32;;;;;;;7.50;4.30;;;15.10;99.90;;;;;;5140921;27;20478;-81
2021/09/12 06:01:00;;;;;;;6.53;3.70;;;15.00;99.90;;;;;;5119491;27;20507;-79
2021/09/12 06:03:30;;;;;;;6.63;3.93;;;15.00;99.90;;;;;;5139605;27;20511;-83
2021/09/12 06:05:57;;;;;;;5.87;3.97;;;15.00;99.90;;;;;;5139462;27;20471;-82
2021/09/12 06:08:23;;;;;;;6.03;4.10;;;15.10;99.90;;;;;;5140106;27;20472;-82
2021/09/12 06:10:50;;;;;;;8.17;4.83;;;15.10;99.90;;;;;;5139554;27;20488;-82
2021/09/12 06:13:18;;;;;;;5.13;3.87;;;15.20;99.90;;;;;;5121379;27;20425;-82
2021/09/12 06:15:44;;;;;;;5.50;4.10;;;15.20;99.90;;;;;;5140064;27;20430;-81
2021/09/12 06:18:13;;;;;;;6.90;4.47;;;15.20;99.90;;;;;;5138765;27;20480;-81
2021/09/12 06:20:39;;;;;;;6.73;4.27;;;15.30;99.90;;;;;;5139566;27;20400;-81
2021/09/12 06:23:06;;;;;;;6.33;4.70;;;15.40;99.90;;;;;;5121311;27;20886;-77
2021/09/12 06:25:33;;;;;;;9.00;4.60;;;15.50;99.90;;;;;;5129148;27;20486;-81
2021/09/12 06:28:00;;;;;;;5.17;4.20;;;15.50;99.90;;;;;;5134105;27;20483;-80
2021/09/12 06:30:27;;;;;;;7.47;5.30;;;15.60;99.90;;;;;;5120236;28;20504;-81
2021/09/12 06:32:54;;;;;;;6.27;4.17;;;15.70;99.90;;;;;;5134822;27;20445;-80
2021/09/12 06:35:22;;;;;;;6.00;4.57;;;15.70;99.90;;;;;;5138337;27;20427;-80
2021/09/12 06:37:49;;;;;;;5.10;4.00;;;15.80;99.90;;;;;;5138530;27;20569;-81
2021/09/12 06:40:16;;;;;;;7.60;4.43;;;16.00;99.90;;;;;;5138179;27;20746;-81
2021/09/12 06:42:43;;;;;;;6.37;4.40;;;16.00;99.90;;;;;;5130199;27;20515;-81
2021/09/12 06:45:11;;;;;;;6.93;4.33;;;16.10;99.90;;;;;;5137330;27;20429;-81
2021/09/12 06:47:39;;;;;;;5.63;4.10;;;16.10;99.90;;;;;;5140189;27;20524;-82
2021/09/12 06:50:07;;;;;;;6.77;4.63;;;16.20;99.90;;;;;;5143998;27;20502;-79
2021/09/12 06:52:36;;;;;;;6.10;4.63;;;16.20;99.90;;;;;;5127438;27;20443;-80
2021/09/12 06:55:02;;;;;;;7.27;4.83;;;16.30;99.90;;;;;;5118412;28;20438;-81
2021/09/12 06:57:29;;;;;;;12.10;5.50;;;16.50;99.90;;;;;;5127674;27;20476;-80
2021/09/12 06:59:56;;;;;;;6.60;4.53;;;16.60;99.90;;;;;;5142304;27;20426;-79
2021/09/12 07:02:23;;;;;;;8.27;4.50;;;16.60;99.90;;;;;;5128480;27;20455;-81
2021/09/12 07:04:50;;;;;;;8.00;5.13;;;16.70;99.90;;;;;;5122893;27;20478;-80
2021/09/12 07:07:17;;;;;;;7.07;4.80;;;16.80;99.90;;;;;;5135994;27;20800;-80
2021/09/12 07:09:45;;;;;;;9.90;5.23;;;16.90;99.90;;;;;;5126247;27;20916;-80
2021/09/12 07:12:12;;;;;;;6.33;4.70;;;17.00;99.90;;;;;;5118112;27;20456;-81
2021/09/12 07:14:38;;;;;;;6.63;5.30;;;17.10;99.90;;;;;;5118747;28;20446;-81
2021/09/12 07:17:19;;;;;;;6.73;5.10;;;17.10;99.90;;;;;;5118151;28;20552;-82
2021/09/12 07:19:46;;;;;;;8.50;5.30;;;17.20;99.90;;;;;;5118221;28;20447;-80
2021/09/12 07:22:13;;;;;;;6.57;5.20;;;17.30;99.90;;;;;;5117828;28;20487;-81
2021/09/12 07:24:39;;;;;;;9.30;4.80;;;17.40;99.90;;;;;;5117110;28;20439;-81
2021/09/12 07:27:08;;;;;;;7.33;6.20;;;17.40;99.90;;;;;;5121503;27;20506;-79
2021/09/12 07:29:35;;;;;;;7.80;5.37;;;17.50;99.90;;;;;;5120890;28;20471;-81
2021/09/12 07:32:02;;;;;;;5.77;4.53;;;17.60;99.90;;;;;;5118526;28;20427;-78
2021/09/12 07:34:28;;;;;;;8.33;5.23;;;17.70;99.90;;;;;;5121445;28;20515;-80
2021/09/12 07:36:55;;;;;;;6.40;5.40;;;17.80;99.90;;;;;;5119984;28;20452;-84
2021/09/12 07:39:22;;;;;;;8.37;6.07;;;17.90;99.90;;;;;;5119646;28;20437;-85
2021/09/12 07:41:49;;;;;;;7.80;5.40;;;18.00;99.90;;;;;;5119393;28;20452;-80
2021/09/12 07:44:18;;;;;;;7.40;4.90;;;18.00;99.90;;;;;;5119735;28;20452;-84
2021/09/12 07:46:44;;;;;;;5.57;4.50;;;18.10;99.90;;;;;;5117686;28;20460;-80
2021/09/12 07:49:11;;;;;;;6.00;5.23;;;18.20;99.90;;;;;;5120166;28;20884;-79
2021/09/12 07:51:38;;;;;;;7.13;4.83;;;18.30;99.90;;;;;;5117740;28;20599;-80
2021/09/12 07:54:05;;;;;;;7.67;5.00;;;18.40;99.90;;;;;;5117676;28;20521;-79
2021/09/12 07:56:32;;;;;;;6.43;5.10;;;18.40;99.90;;;;;;5136803;27;20525;-79
2021/09/12 07:58:59;;;;;;;6.90;4.40;;;18.50;99.90;;;;;;5137517;27;20496;-79
2021/09/12 08:01:27;;;;;;;6.63;4.90;;;18.60;99.90;;;;;;5132908;27;20461;-79
2021/09/12 08:03:54;;;;;;;6.87;4.47;;;18.70;99.90;;;;;;5116938;28;20460;-79
2021/09/12 08:06:22;;;;;;;4.80;3.53;;;18.80;99.90;;;;;;5117258;28;20506;-79
2021/09/12 08:08:49;;;;;;;6.43;4.13;;;18.90;99.90;;;;;;5127922;27;20497;-77
2021/09/12 08:11:16;;;;;;;6.30;4.33;;;19.10;99.90;;;;;;5143849;27;20578;-78
2021/09/12 08:13:43;;;;;;;6.40;4.73;;;19.20;99.90;;;;;;5137880;27;20422;-77
2021/09/12 08:16:10;;;;;;;7.47;4.40;;;19.10;99.90;;;;;;5136210;27;21000;-79
2021/09/12 08:18:38;;;;;;;7.13;5.23;;;19.20;99.90;;;;;;5137024;27;20851;-79
2021/09/12 08:21:05;;;;;;;5.33;4.23;;;19.40;99.90;;;;;;5137054;27;20451;-82
2021/09/12 08:23:32;;;;;;;8.17;4.70;;;19.30;99.90;;;;;;5136703;27;20469;-80
2021/09/12 08:25:59;;;;;;;6.13;5.03;;;19.10;99.90;;;;;;5138940;27;20479;-80
2021/09/12 08:28:25;;;;;;;6.57;4.37;;;19.20;99.90;;;;;;5135071;22;20653;-76
2021/09/12 08:30:52;;;;;;;5.57;4.40;;;19.40;99.90;;;;;;5009119;28;20820;-76
2021/09/12 08:33:19;;;;;;;7.43;4.67;;;19.40;99.90;;;;;;5012425;28;20461;-76
2021/09/12 08:35:47;;;;;;;5.90;3.70;;;19.40;99.90;;;;;;5008494;28;20537;-75
2021/09/12 08:38:15;;;;;;;5.53;3.87;;;19.50;99.90;;;;;;5010979;28;20458;-75
2021/09/12 08:40:41;;;;;;;10.40;4.50;;;19.50;99.90;;;;;;5003786;28;20550;-73
2021/09/12 08:43:08;;;;;;;5.17;4.20;;;19.70;99.90;;;;;;4989134;28;20558;-73
2021/09/12 08:45:36;;;;;;;5.60;4.20;;;19.80;99.90;;;;;;4988953;28;20461;-76
2021/09/12 08:48:03;;;;;;;8.87;4.43;;;19.80;99.90;;;;;;4989140;28;20482;-74
2021/09/12 08:50:31;;;;;;;6.13;3.93;;;19.90;99.90;;;;;;4988888;28;20497;-75
2021/09/12 08:52:59;;;;;;;5.40;3.97;;;20.00;99.90;;;;;;5000465;28;20453;-74
2021/09/12 08:55:26;;;;;;;5.43;3.60;;;20.00;99.90;;;;;;5015070;28;20479;-74
2021/09/12 08:57:55;;;;;;;5.07;3.80;;;20.00;99.90;;;;;;5028540;28;20462;-74
2021/09/12 09:00:25;;;;;;;5.07;3.17;;;20.10;99.90;;;;;;5028154;28;20559;-74
2021/09/12 09:02:57;;;;;;;4.93;3.30;;;20.10;99.90;;;;;;5012510;28;20538;-74
2021/09/12 09:05:30;;;;;;;5.73;3.27;;;20.00;99.90;;;;;;5008220;28;20492;-74
2021/09/12 09:08:06;;;;;;;6.70;3.53;;;20.10;99.90;;;;;;5025178;28;20445;-75
2021/09/12 09:10:42;;;;;;;4.97;2.83;;;20.20;99.90;;;;;;5009494;28;20490;-75
2021/09/12 09:13:30;;;;;;;4.37;2.83;;;20.30;99.90;;;;;;4992513;28;20461;-73
2021/09/12 09:15:58;;;;;;;5.50;3.40;;;20.30;99.90;;;;;;4991781;28;20920;-74
2021/09/12 09:18:36;;;;;;;5.90;3.03;;;20.40;99.90;;;;;;4992055;28;20557;-74
2021/09/12 09:21:24;;;;;;;3.83;2.70;;;20.50;99.90;;;;;;4992074;28;20479;-74
2021/09/12 09:24:09;;;;;;;4.90;3.67;;;20.70;99.90;;;;;;5005711;28;20451;-74
2021/09/12 09:26:38;;;;;;;6.23;3.37;;;20.80;99.90;;;;;;5030781;28;20530;-74
2021/09/12 09:29:05;;;;;;;4.27;2.70;;;20.80;99.90;;;;;;5030467;28;20577;-74
2021/09/12 09:31:32;;;;;;;5.93;3.40;;;20.90;99.90;;;;;;5030781;28;20888;-75
2021/09/12 09:34:14;;;;;;;5.30;3.33;;;21.00;99.90;;;;;;5031057;28;20887;-74
2021/09/12 09:36:41;;;;;;;4.40;2.87;;;21.10;99.90;;;;;;5030939;28;20442;-74
2021/09/12 09:39:09;;;;;;;4.27;3.10;;;21.10;99.90;;;;;;5031062;28;20479;-74
2021/09/12 09:41:37;;;;;;;5.97;3.57;;;20.90;99.90;;;;;;5008666;28;20942;-74
2021/09/12 09:44:10;;;;;;;4.57;3.03;;;21.00;99.90;;;;;;5010874;28;20458;-74
2021/09/12 09:46:38;;;;;;;8.03;3.43;;;21.00;99.90;;;;;;5010961;28;20453;-74
2021/09/12 09:49:22;;;;;;;5.70;3.30;;;21.00;99.90;;;;;;5002800;28;20482;-74
2021/09/12 09:51:51;;;;;;;4.97;3.00;;;21.10;99.90;;;;;;4991195;28;20483;-75
2021/09/12 09:54:20;;;;;;;6.13;3.10;;;21.10;99.90;;;;;;4991515;28;20489;-74
2021/09/12 09:56:49;;;;;;;6.63;2.93;;;21.00;99.90;;;;;;4993101;28;20538;-74
2021/09/12 09:59:18;;;;;;;5.17;3.23;;;21.10;99.90;;;;;;5016568;28;20470;-74
2021/09/12 10:01:49;;;;;;;29.83;3.70;;;21.20;99.90;;;;;;5004637;28;20949;-75
2021/09/12 10:04:17;;;;;;;4.80;3.03;;;21.20;99.90;;;;;;4992257;28;20451;-74
2021/09/12 10:06:44;;;;;;;4.73;3.13;;;21.30;99.90;;;;;;4993029;28;20927;-74
2021/09/12 10:09:12;;;;;;;4.47;2.73;;;21.50;99.90;;;;;;5007297;28;21016;-74
2021/09/12 10:11:42;;;;;;;5.73;3.60;;;21.60;99.90;;;;;;5008838;28;20517;-74
2021/09/12 10:14:12;;;;;;;6.40;3.20;;;21.70;99.90;;;;;;5016736;28;20495;-74
2021/09/12 10:16:40;;;;;;;4.30;2.90;;;21.80;99.90;;;;;;5002843;28;20455;-75
2021/09/12 10:19:07;;;;;;;4.70;3.47;;;21.90;99.90;;;;;;4997724;28;20861;-75
2021/09/12 10:21:34;;;;;;;5.80;3.80;;;22.00;99.90;;;;;;5010677;28;20452;-75
2021/09/12 10:24:04;;;;;;;5.00;3.60;;;22.10;99.90;;;;;;5010134;28;20447;-74
2021/09/12 10:26:37;;;;;;;5.23;3.40;;;22.10;99.90;;;;;;5010353;28;20957;-75
2021/09/12 10:29:26;;;;;;;4.90;3.20;;;22.10;99.90;;;;;;4997455;28;20601;-75
2021/09/12 10:31:53;;;;;;;5.40;3.57;;;22.20;99.90;;;;;;5004895;28;20487;-74
2021/09/12 10:34:20;;;;;;;6.10;3.47;;;22.10;99.90;;;;;;5011355;28;20831;-74
2021/09/12 10:36:47;;;;;;;4.33;3.20;;;22.20;99.90;;;;;;5010820;28;20472;-74
2021/09/12 10:39:36;;;;;;;6.73;3.40;;;22.30;99.90;;;;;;5002498;28;20475;-76
2021/09/12 10:42:20;;;;;;;5.80;3.50;;;22.40;99.90;;;;;;4990727;28;20542;-75
2021/09/12 10:45:21;;;;;;;4.50;3.07;;;22.50;99.90;;;;;;5003489;28;20462;-75
2021/09/12 10:47:49;;;;;;;4.67;3.07;;;22.70;99.90;;;;;;5011405;28;20843;-75
2021/09/12 10:50:41;;;;;;;4.77;2.97;;;22.70;99.90;;;;;;5009573;28;20578;-75
2021/09/12 10:53:08;;;;;;;5.10;3.00;;;22.90;99.90;;;;;;5009561;28;20455;-75
2021/09/12 10:56:00;;;;;;;5.17;3.97;;;22.90;99.90;;;;;;5010460;28;20774;-75
2021/09/12 10:58:27;;;;;;;5.10;3.20;;;22.60;99.90;;;;;;5008550;28;20475;-74
2021/09/12 11:00:57;;;;;;;4.93;3.20;;;22.40;99.90;;;;;;4990245;28;20448;-75
2021/09/12 11:03:24;;;;;;;4.90;3.10;;;22.20;99.90;;;;;;4990915;28;20823;-74
2021/09/12 11:05:52;;;;;;;5.20;3.50;;;22.30;99.90;;;;;;5005441;28;20446;-75
2021/09/12 11:08:19;;;;;;;5.27;3.40;;;22.40;99.90;;;;;;4993930;28;20554;-75
2021/09/12 11:10:50;;;;;;;4.57;3.27;;;22.50;99.90;;;;;;5003648;28;20486;-74
2021/09/12 11:13:23;;;;;;;5.20;3.20;;;22.60;99.90;;;;;;4998840;28;20483;-75
2021/09/12 11:15:50;;;;;;;4.30;2.63;;;22.70;99.90;;;;;;4990065;28;20904;-74
2021/09/12 11:18:22;;;;;;;4.50;2.87;;;22.70;99.90;;;;;;4990109;28;20459;-76
2021/09/12 11:20:49;;;;;;;5.03;3.40;;;22.60;99.90;;;;;;4991457;28;20500;-75
2021/09/12 11:23:28;;;;;;;4.50;3.13;;;22.60;99.90;;;;;;5025183;28;20468;-76
2021/09/12 11:25:57;;;;;;;5.70;3.20;;;22.60;99.90;;;;;;4990735;28;20444;-77
2021/09/12 11:28:27;;;;;;;7.77;3.20;;;22.50;99.90;;;;;;4990344;28;20491;-77
2021/09/12 11:30:54;;;;;;;5.20;3.13;;;22.60;99.90;;;;;;4990590;28;20859;-78
2021/09/12 11:33:23;;;;;;;4.50;3.10;;;22.70;99.90;;;;;;5004059;28;20454;-77
2021/09/12 11:35:59;;;;;;;4.27;2.87;;;22.90;99.90;;;;;;4989821;28;20546;-77
2021/09/12 11:38:27;;;;;;;5.23;2.90;;;22.80;99.90;;;;;;4999656;28;20850;-77
2021/09/12 11:40:57;;;;;;;4.70;2.93;;;22.60;99.90;;;;;;5009281;28;20469;-77
2021/09/12 11:43:24;;;;;;;5.80;3.47;;;22.50;99.90;;;;;;5010127;28;20891;-77
2021/09/12 11:46:04;;;;;;;4.97;3.23;;;22.60;99.90;;;;;;5009964;28;20458;-79
2021/09/12 11:48:32;;;;;;;3.90;2.70;;;22.70;99.90;;;;;;4999309;28;20483;-78
2021/09/12 11:50:59;;;;;;;5.33;3.00;;;22.70;99.90;;;;;;4990747;28;20487;-78
2021/09/12 11:53:27;;;;;;;4.30;3.00;;;22.80;99.90;;;;;;4996362;28;20621;-77
2021/09/12 11:55:54;;;;;;;4.80;3.70;;;22.60;99.90;;;;;;5003034;28;20942;-81
2021/09/12 11:58:21;;;;;;;4.43;2.90;;;22.60;99.90;;;;;;5008898;28;20470;-76
2021/09/12 12:00:50;;;;;;;5.20;3.47;;;22.70;99.90;;;;;;5000265;28;20459;-77
2021/09/12 12:03:25;;;;;;;6.27;3.30;;;22.80;99.90;;;;;;5002522;28;20458;-77
2021/09/12 12:05:55;;;;;;;5.60;3.40;;;22.70;99.90;;;;;;4989265;28;20451;-77
2021/09/12 12:08:22;;;;;;;4.70;3.07;;;22.70;99.90;;;;;;4989447;28;20941;-77
2021/09/12 12:10:49;;;;;;;6.00;3.20;;;22.80;99.90;;;;;;5002453;28;20821;-77
2021/09/12 12:13:16;;;;;;;4.47;2.90;;;22.60;99.90;;;;;;5019015;28;20556;-77
2021/09/12 12:15:46;;;;;;;5.30;2.93;;;22.70;99.90;;;;;;5008199;28;20821;-77
2021/09/12 12:18:14;;;;;;;5.43;3.37;;;22.70;99.90;;;;;;5008933;28;20492;-77
2021/09/12 12:20:42;;;;;;;5.10;3.00;;;22.70;99.90;;;;;;5007527;28;20539;-77
2021/09/12 12:23:21;;;;;;;4.77;3.07;;;22.80;99.90;;;;;;5010347;28;20456;-76
2021/09/12 12:25:49;;;;;;;4.50;3.50;;;22.90;99.90;;;;;;4990497;28;20451;-76
2021/09/12 12:28:17;;;;;;;4.73;3.20;;;22.90;99.90;;;;;;4993220;28;20458;-77
2021/09/12 12:30:45;;;;;;;4.73;3.00;;;23.10;99.90;;;;;;5003541;28;20453;-77
2021/09/12 12:33:16;;;;;;;4.73;3.50;;;23.10;99.90;;;;;;5004386;28;20807;-77
2021/09/12 12:36:03;;;;;;;6.20;3.60;;;23.10;99.90;;;;;;5010487;28;20454;-81
2021/09/12 12:38:31;;;;;;;6.53;3.43;;;23.20;99.90;;;;;;5012915;28;20474;-78
2021/09/12 12:41:07;;;;;;;4.43;3.40;;;23.20;99.90;;;;;;5009917;28;20454;-78
2021/09/12 12:43:37;;;;;;;4.50;3.03;;;23.30;99.60;;;;;;5015846;28;20438;-77
2021/09/12 12:46:04;;;;;;;5.53;3.27;;;23.30;99.30;;;;;;4997708;28;20458;-77
2021/09/12 12:48:33;;;;;;;5.57;3.20;;;23.20;99.80;;;;;;4993124;28;20471;-77
2021/09/12 12:51:10;;;;;;;4.93;3.07;;;23.20;99.60;;;;;;4992957;28;20459;-77